GPGAV EGCC-EGCB
Flight info
| Callsign | GPGAV |
|---|---|
| Flight time | 0h -8m |
| Altitude | 1499 |
| Route | EGCC/23R 532242N0021813W 532355N0021534W DCT 532655N0021208W 532831N0021215W 532919N0021451W |
| Aircraft | C152/L-SFG/C |
Departure
| Time | 2026-04-24 19:55 |
|---|---|
| Airport | Manchester Airport (EGCC) |
Arrival
| Time | 2026-04-24 19:47 |
|---|---|
| Airport | Manchester Barton Aerodrome (EGCB) |
| Time | Latitude | Longitude | Altitude | Speed | Heading |
|---|---|---|---|---|---|
| 2026-04-24 19:47 | 53.35457 | -2.28027 | 227 ft | 0 kts | 179° |
| 2026-04-24 19:48 | 53.35450 | -2.27994 | 227 ft | 7 kts | 78° |
| 2026-04-24 19:48 | 53.35487 | -2.27730 | 227 ft | 14 kts | 47° |
| 2026-04-24 19:49 | 53.35573 | -2.27457 | 227 ft | 4 kts | 144° |
| 2026-04-24 19:49 | 53.35570 | -2.27453 | 227 ft | 0 kts | 140° |
| 2026-04-24 19:53 | 53.35488 | -2.27346 | 234 ft | 15 kts | 148° |
| 2026-04-24 19:54 | 53.35426 | -2.27389 | 233 ft | 1 kts | 231° |
| 2026-04-24 19:54 | 53.35426 | -2.27390 | 233 ft | 0 kts | 231° |
| 2026-04-24 19:54 | 53.35317 | -2.27614 | 229 ft | 52 kts | 231° |
| 2026-04-24 19:54 | 53.35030 | -2.28215 | 262 ft | 74 kts | 231° |
| 2026-04-24 19:55 | 53.34827 | -2.28675 | 370 ft | 71 kts | 234° |
| 2026-04-24 19:55 | 53.34660 | -2.29716 | 556 ft | 78 kts | 294° |
| 2026-04-24 19:55 | 53.35042 | -2.30424 | 687 ft | 85 kts | 320° |
| 2026-04-24 19:55 | 53.35515 | -2.31037 | 858 ft | 86 kts | 324° |
| 2026-04-24 19:56 | 53.36017 | -2.31612 | 1031 ft | 88 kts | 324° |
| 2026-04-24 19:56 | 53.36483 | -2.32254 | 1153 ft | 86 kts | 287° |
| 2026-04-24 19:56 | 53.36636 | -2.33223 | 1273 ft | 86 kts | 278° |
| 2026-04-24 19:56 | 53.36833 | -2.34175 | 1342 ft | 89 kts | 290° |
| 2026-04-24 19:57 | 53.37101 | -2.35207 | 1294 ft | 99 kts | 292° |
| 2026-04-24 19:57 | 53.37360 | -2.36234 | 1381 ft | 92 kts | 282° |
| 2026-04-24 19:57 | 53.37507 | -2.37346 | 1350 ft | 102 kts | 278° |
| 2026-04-24 19:57 | 53.37557 | -2.38482 | 1403 ft | 97 kts | 271° |
| 2026-04-24 19:58 | 53.37628 | -2.39606 | 1426 ft | 98 kts | 275° |
| 2026-04-24 19:58 | 53.37732 | -2.40747 | 1426 ft | 102 kts | 277° |
| 2026-04-24 19:58 | 53.37860 | -2.41940 | 1409 ft | 101 kts | 278° |
| 2026-04-24 19:58 | 53.37991 | -2.43086 | 1445 ft | 100 kts | 278° |
| 2026-04-24 19:59 | 53.38130 | -2.44222 | 1424 ft | 103 kts | 281° |
| 2026-04-24 19:59 | 53.38321 | -2.45391 | 1395 ft | 102 kts | 283° |
| 2026-04-24 19:59 | 53.38523 | -2.46523 | 1416 ft | 101 kts | 284° |
| 2026-04-24 19:59 | 53.38743 | -2.47635 | 1389 ft | 103 kts | 286° |
| 2026-04-24 20:00 | 53.38982 | -2.48762 | 1360 ft | 103 kts | 287° |
| 2026-04-24 20:00 | 53.39358 | -2.49708 | 1438 ft | 96 kts | 329° |
| 2026-04-24 20:00 | 53.39999 | -2.49904 | 1445 ft | 98 kts | 13° |
| 2026-04-24 20:00 | 53.40644 | -2.49513 | 1448 ft | 100 kts | 28° |
| 2026-04-24 20:01 | 53.41251 | -2.48972 | 1492 ft | 96 kts | 37° |
| 2026-04-24 20:01 | 53.41796 | -2.48341 | 1549 ft | 94 kts | 39° |
| 2026-04-24 20:01 | 53.42333 | -2.47693 | 1559 ft | 98 kts | 40° |
| 2026-04-24 20:01 | 53.42884 | -2.46994 | 1565 ft | 99 kts | 41° |
| 2026-04-24 20:02 | 53.43263 | -2.46531 | 1562 ft | 101 kts | 38° |
| 2026-04-24 20:02 | 53.44058 | -2.45762 | 1546 ft | 101 kts | 22° |
| 2026-04-24 20:02 | 53.44728 | -2.45380 | 1507 ft | 103 kts | 14° |
| 2026-04-24 20:02 | 53.45414 | -2.45179 | 1535 ft | 99 kts | 6° |
| 2026-04-24 20:03 | 53.46066 | -2.44768 | 1486 ft | 103 kts | 32° |
| 2026-04-24 20:03 | 53.46565 | -2.43921 | 1385 ft | 103 kts | 59° |
| 2026-04-24 20:03 | 53.46864 | -2.42839 | 1286 ft | 100 kts | 79° |
| 2026-04-24 20:03 | 53.46883 | -2.41655 | 1142 ft | 104 kts | 93° |
| 2026-04-24 20:04 | 53.46866 | -2.40459 | 817 ft | 100 kts | 98° |
| 2026-04-24 20:04 | 53.46865 | -2.39344 | 653 ft | 91 kts | 90° |
| 2026-04-24 20:04 | 53.46893 | -2.38335 | 582 ft | 84 kts | 92° |
| 2026-04-24 20:04 | 53.46904 | -2.37389 | 596 ft | 78 kts | 95° |
| 2026-04-24 20:05 | 53.47168 | -2.36864 | 648 ft | 71 kts | 326° |
| 2026-04-24 20:05 | 53.47257 | -2.37657 | 370 ft | 76 kts | 260° |
| 2026-04-24 20:05 | 53.47202 | -2.38419 | 116 ft | 56 kts | 257° |
| 2026-04-24 20:05 | 53.47165 | -2.38905 | 73 ft | 19 kts | 265° |
| 2026-04-24 20:06 | 53.47150 | -2.39076 | 71 ft | 14 kts | 260° |
| 2026-04-24 20:06 | 53.47107 | -2.39130 | 70 ft | 8 kts | 123° |
| 2026-04-24 20:06 | 53.47105 | -2.39055 | 71 ft | 6 kts | 86° |
| 2026-04-24 20:06 | 53.47112 | -2.38961 | 72 ft | 11 kts | 85° |
| 2026-04-24 20:07 | 53.47117 | -2.38860 | 71 ft | 15 kts | 86° |
| 2026-04-24 20:07 | 53.47095 | -2.38665 | 68 ft | 9 kts | 150° |
| 2026-04-24 20:07 | 53.47078 | -2.38650 | 73 ft | 0 kts | 134° |